KHOT/HOT METAR and TAF weather

Enter ICAO airport designator
Station Type Date Time Source
KHOT METAR 2021/01/27 13:53 UTC NOAA

KHOT 271353Z AUTO 09009KT 7SM -RA SCT055 BKN100 04/02 A3011 RMK AO2 RAB01 SLP196 P0001 T00390022


Station Type Date Time Source
KHOT Decoded METAR 2021/01/27 13:53 UTC NOAA

HOT SPRINGS MEMORIAL FIELD, AR, United States (KHOT) 34-29N 093-06W 162M
Jan 27, 2021 - 08:53 AM EST / 2021.01.27 1353 UTC
Wind: from the E (090 degrees) at 10 MPH (9 KT):0
Visibility: 7 mile(s):0
Sky conditions: mostly cloudy
Weather: light rain
Precipitation last hour: 0.01 inches
Temperature: 39.0 F (3.9 C)
Dew Point: 36.0 F (2.2 C)
Relative Humidity: 88%
Pressure (altimeter): 30.11 in. Hg (1019 hPa)
ob: KHOT 271353Z AUTO 09009KT 7SM -RA SCT055 BKN100 04/02 A3011 RMK AO2 RAB01 SLP196 P0001 T00390022
cycle: 14

Station Type Date Time Source
KHOT TAF 2021/01/27 12:42 UTC NOAA

TAF KHOT 271139Z 2712/2812 32005KT P6SM -RA BKN025 OVC040
TEMPO 2712/2716 3SM -RA BR BKN008 OVC015
FM271700 32010G17KT P6SM SCT025 BKN040
FM280000 01005KT P6SM SKC

Example: see airport list